createdAt,value
2019-04-05T00:00:41.760Z,8.40
2019-04-05T00:03:08.268Z,7.78
2019-04-05T00:05:35.348Z,8.05
2019-04-05T00:08:01.765Z,8.50
2019-04-05T00:10:28.275Z,8.23
2019-04-05T00:12:54.958Z,10.03
2019-04-05T00:15:23.339Z,9.50
2019-04-05T00:17:52.152Z,9.50
2019-04-05T00:20:18.682Z,9.83
2019-04-05T00:22:47.911Z,10.28
2019-04-05T00:25:28.121Z,10.58
2019-04-05T00:27:59.267Z,9.70
2019-04-05T00:30:26.074Z,18.80
2019-04-05T00:32:52.784Z,8.93
2019-04-05T00:35:19.503Z,9.13
2019-04-05T00:37:45.924Z,11.33
2019-04-05T00:40:12.871Z,10.32
2019-04-05T00:42:39.279Z,8.70
2019-04-05T00:45:06.501Z,8.60
2019-04-05T00:47:33.005Z,9.55
2019-04-05T00:49:59.663Z,10.03
2019-04-05T00:52:26.194Z,9.30
2019-04-05T00:54:52.945Z,9.80
2019-04-05T00:57:19.582Z,10.03
2019-04-05T00:59:47.055Z,9.78
2019-04-05T01:02:13.485Z,9.78
2019-04-05T01:04:40.037Z,9.93
2019-04-05T01:07:06.749Z,9.88
2019-04-05T01:09:33.289Z,10.70
2019-04-05T01:12:01.398Z,13.30
2019-04-05T01:14:28.257Z,13.90
2019-04-05T01:16:55.381Z,16.62
2019-04-05T01:19:26.622Z,18.35
2019-04-05T01:21:54.746Z,20.90
2019-04-05T01:24:23.288Z,16.95
2019-04-05T01:26:50.089Z,19.42
2019-04-05T01:29:17.542Z,18.27
2019-04-05T01:31:44.116Z,19.05
2019-04-05T01:34:12.019Z,18.95
2019-04-05T01:36:38.468Z,17.45
2019-04-05T01:39:05.153Z,16.25
2019-04-05T01:41:31.897Z,19.37
2019-04-05T01:44:01.046Z,17.55
2019-04-05T01:46:28.065Z,18.67
2019-04-05T01:48:54.589Z,19.23
2019-04-05T01:51:24.375Z,18.65
2019-04-05T01:53:50.869Z,18.92
2019-04-05T01:56:17.881Z,17.07
2019-04-05T01:58:44.246Z,17.75
2019-04-05T02:01:11.012Z,14.07
2019-04-05T02:03:37.625Z,12.85
2019-04-05T02:06:04.269Z,12.40
2019-04-05T02:08:30.903Z,12.18
2019-04-05T02:10:58.125Z,12.25
2019-04-05T02:13:25.084Z,11.75
2019-04-05T02:15:51.789Z,11.35
2019-04-05T02:18:21.248Z,11.57
2019-04-05T02:20:49.078Z,11.43
2019-04-05T02:23:16.162Z,12.53
2019-04-05T02:25:42.569Z,11.12
2019-04-05T02:28:12.112Z,11.85
2019-04-05T02:30:38.685Z,12.07
2019-04-05T02:33:05.430Z,10.68
2019-04-05T02:35:51.879Z,9.78
2019-04-05T02:38:20.911Z,10.05
2019-04-05T02:40:47.932Z,8.40
2019-04-05T02:43:17.296Z,8.95
2019-04-05T02:45:48.240Z,8.08
2019-04-05T02:48:17.715Z,6.92
2019-04-05T02:50:47.931Z,7.37
2019-04-05T02:53:17.188Z,6.35
2019-04-05T02:55:47.600Z,6.58
2019-04-05T02:58:17.172Z,6.80
2019-04-05T03:00:45.104Z,5.72
2019-04-05T03:03:15.250Z,5.80
2019-04-05T03:05:43.057Z,5.90
2019-04-05T03:08:12.109Z,5.65
2019-04-05T03:11:01.250Z,7.60
2019-04-05T03:13:32.130Z,6.40
2019-04-05T03:16:02.366Z,6.40
2019-04-05T03:18:29.923Z,6.15
2019-04-05T03:21:00.051Z,6.90
2019-04-05T03:23:32.010Z,7.40
2019-04-05T03:28:59.801Z,8.70
2019-04-05T03:31:26.739Z,7.75
2019-04-05T03:33:53.887Z,7.25
2019-04-05T03:36:21.699Z,7.08
2019-04-05T03:38:48.316Z,8.33
2019-04-05T03:41:15.950Z,6.70
2019-04-05T03:43:43.989Z,6.87
2019-04-05T03:46:10.645Z,7.95
2019-04-05T03:48:37.632Z,6.65
2019-04-05T03:51:04.859Z,6.75
2019-04-05T03:53:31.678Z,8.13
2019-04-05T03:55:58.070Z,8.45
2019-04-05T03:58:24.699Z,7.83
2019-04-05T04:00:51.901Z,6.83
2019-04-05T04:03:18.440Z,13.72
2019-04-05T04:05:45.047Z,7.58
2019-04-05T04:08:11.771Z,8.18
2019-04-05T04:10:38.700Z,7.85
2019-04-05T04:13:05.282Z,7.75
2019-04-05T04:15:31.989Z,8.43
2019-04-05T04:17:58.657Z,8.20
2019-04-05T04:20:34.798Z,8.80
2019-04-05T04:23:03.897Z,9.98
2019-04-05T04:25:30.630Z,9.58
2019-04-05T04:27:57.263Z,9.50
2019-04-05T04:30:24.712Z,11.30
2019-04-05T04:32:51.620Z,11.35
2019-04-05T04:35:18.129Z,11.78
2019-04-05T04:37:44.962Z,11.85
2019-04-05T04:40:11.457Z,11.48
2019-04-05T04:42:40.314Z,13.43
2019-04-05T04:45:12.638Z,11.33
2019-04-05T04:47:36.444Z,11.33
2019-04-05T04:50:03.493Z,10.68
2019-04-05T04:52:31.518Z,12.18
2019-04-05T04:54:58.618Z,9.93
2019-04-05T04:57:25.352Z,11.05
2019-04-05T04:59:52.148Z,10.25
2019-04-05T05:02:18.679Z,11.48
2019-04-05T05:04:45.520Z,11.12
2019-04-05T05:07:12.620Z,10.30
2019-04-05T05:09:39.261Z,11.93
2019-04-05T05:12:08.833Z,13.43
2019-04-05T05:14:36.424Z,12.43
2019-04-05T05:17:05.794Z,13.98
2019-04-05T05:19:33.022Z,11.75
2019-04-05T05:22:04.177Z,13.03
2019-04-05T05:24:31.057Z,12.37
2019-04-05T05:26:58.430Z,13.83
2019-04-05T05:29:25.155Z,13.60
2019-04-05T05:31:58.913Z,13.68
2019-04-05T05:34:27.407Z,13.53
2019-04-05T05:36:55.927Z,14.07
2019-04-05T05:39:22.571Z,13.72
2019-04-05T05:41:49.170Z,14.90
2019-04-05T05:44:15.823Z,14.85
2019-04-05T05:46:42.209Z,14.63
2019-04-05T05:49:08.890Z,15.63
2019-04-05T05:51:36.318Z,14.87
2019-04-05T05:54:03.033Z,14.53
2019-04-05T05:56:29.576Z,15.03
2019-04-05T05:58:59.439Z,16.17
2019-04-05T06:01:24.435Z,17.85
2019-04-05T06:03:50.901Z,19.80
2019-04-05T06:06:17.321Z,19.05
2019-04-05T06:08:43.882Z,18.50
2019-04-05T06:11:10.308Z,18.62
2019-04-05T06:13:36.800Z,19.30
2019-04-05T06:16:03.432Z,15.65
2019-04-05T06:18:29.710Z,19.37
2019-04-05T06:20:56.166Z,19.30
2019-04-05T06:23:32.968Z,16.70
2019-04-05T06:25:50.924Z,16.30
2019-04-05T06:28:17.435Z,15.30
2019-04-05T06:30:44.090Z,16.12
2019-04-05T06:33:10.662Z,16.37
2019-04-05T06:35:38.504Z,15.72
2019-04-05T06:38:05.119Z,18.23
2019-04-05T06:40:40.781Z,20.27
2019-04-05T06:43:00.314Z,18.40
2019-04-05T06:45:26.843Z,18.10
2019-04-05T06:47:53.357Z,18.00
2019-04-05T06:50:19.963Z,18.87
2019-04-05T06:52:46.490Z,15.28
2019-04-05T06:55:13.175Z,16.23
2019-04-05T06:57:39.737Z,19.25
2019-04-05T07:00:06.715Z,15.75
2019-04-05T07:02:34.474Z,15.93
2019-04-05T07:05:01.141Z,14.07
2019-04-05T07:07:27.555Z,13.28
2019-04-05T07:09:54.096Z,14.45
2019-04-05T07:12:20.941Z,13.05
2019-04-05T07:14:47.671Z,14.70
2019-04-05T07:17:14.342Z,13.93
2019-04-05T07:19:40.953Z,12.85
2019-04-05T07:22:07.550Z,12.25
2019-04-05T07:24:33.988Z,11.00
2019-04-05T07:27:00.692Z,11.33
2019-04-05T07:29:28.372Z,10.95
2019-04-05T07:31:55.089Z,11.18
2019-04-05T07:34:21.587Z,10.70
2019-04-05T07:36:48.061Z,13.83
2019-04-05T07:39:15.041Z,10.32
2019-04-05T07:41:41.564Z,11.22
2019-04-05T07:44:08.105Z,13.30
2019-04-05T07:46:34.761Z,12.23
2019-04-05T07:49:01.269Z,11.63
2019-04-05T07:51:29.159Z,12.13
2019-04-05T07:53:55.665Z,16.55
2019-04-05T07:56:22.270Z,14.10
2019-04-05T07:58:48.950Z,13.05
2019-04-05T08:01:15.663Z,13.28
2019-04-05T08:03:42.322Z,15.15
2019-04-05T08:06:09.960Z,15.20
2019-04-05T08:08:55.241Z,14.15
2019-04-05T08:13:49.226Z,13.00
2019-04-05T08:16:15.912Z,15.65
2019-04-05T08:18:42.622Z,23.90
2019-04-05T08:21:09.262Z,14.23
2019-04-05T08:23:35.673Z,15.80
2019-04-05T08:26:02.284Z,12.60
2019-04-05T08:28:29.811Z,16.20
2019-04-05T08:30:56.850Z,14.03
2019-04-05T08:33:23.425Z,12.18
2019-04-05T08:35:50.109Z,12.78
2019-04-05T08:38:16.571Z,10.82
2019-04-05T08:40:42.936Z,12.10
2019-04-05T08:43:09.604Z,13.55
2019-04-05T08:45:36.280Z,11.65
2019-04-05T08:48:02.979Z,11.38
2019-04-05T08:50:29.576Z,14.18
2019-04-05T08:52:56.248Z,12.47
2019-04-05T08:55:22.779Z,12.20
2019-04-05T08:57:49.458Z,11.25
2019-04-05T09:00:16.883Z,12.28
2019-04-05T09:02:43.688Z,11.00
2019-04-05T09:05:10.323Z,12.45
2019-04-05T09:07:37.116Z,13.00
2019-04-05T09:10:05.265Z,11.35
2019-04-05T09:12:31.844Z,9.53
2019-04-05T09:14:58.325Z,10.75
2019-04-05T09:17:24.789Z,7.20
2019-04-05T09:19:54.123Z,7.95
2019-04-05T09:22:21.006Z,6.75
2019-04-05T09:24:47.331Z,5.50
2019-04-05T09:27:13.750Z,4.20
2019-04-05T09:29:40.465Z,3.40
2019-04-05T09:32:07.138Z,3.17
2019-04-05T09:34:33.735Z,5.10
2019-04-05T09:37:00.261Z,5.22
2019-04-05T09:39:26.792Z,4.12
2019-04-05T09:41:53.377Z,5.33
2019-04-05T09:44:19.977Z,5.08
2019-04-05T09:46:50.890Z,4.60
2019-04-05T09:49:14.967Z,3.62
2019-04-05T09:51:41.476Z,3.20
2019-04-05T09:54:09.959Z,3.50
2019-04-05T09:56:36.475Z,5.53
2019-04-05T09:59:14.131Z,5.35
2019-04-05T10:01:40.808Z,5.47
2019-04-05T10:04:07.556Z,6.67
2019-04-05T10:06:34.074Z,4.92
2019-04-05T10:09:00.675Z,4.40
2019-04-05T10:11:27.768Z,5.80
2019-04-05T10:13:54.283Z,6.42
2019-04-05T10:16:20.704Z,6.92
2019-04-05T10:18:47.330Z,8.63
2019-04-05T10:21:14.140Z,8.88
2019-04-05T10:23:40.699Z,7.20
2019-04-05T10:26:07.310Z,8.15
2019-04-05T10:28:34.040Z,9.53
2019-04-05T10:31:00.989Z,10.82
2019-04-05T10:33:28.721Z,11.03
2019-04-05T10:35:55.196Z,11.83
2019-04-05T10:38:22.850Z,14.83
2019-04-05T10:40:49.266Z,15.75
2019-04-05T10:43:16.129Z,15.60
2019-04-05T10:45:42.822Z,12.58
2019-04-05T10:48:09.573Z,12.20
2019-04-05T10:50:36.127Z,13.60
2019-04-05T10:53:03.077Z,15.35
2019-04-05T10:55:29.838Z,15.43
2019-04-05T10:57:56.593Z,16.00
2019-04-05T11:00:24.925Z,14.65
2019-04-05T11:02:51.450Z,14.30
2019-04-05T11:05:18.109Z,15.70
2019-04-05T11:07:44.662Z,16.80
2019-04-05T11:10:12.053Z,16.65
2019-04-05T11:12:38.610Z,14.85
2019-04-05T11:15:05.890Z,14.50
2019-04-05T11:17:32.388Z,12.13
2019-04-05T11:19:58.923Z,13.18
2019-04-05T11:22:25.550Z,13.22
2019-04-05T11:24:52.101Z,9.88
2019-04-05T11:27:18.754Z,11.05
2019-04-05T11:29:45.313Z,8.80
2019-04-05T11:32:11.964Z,8.35
2019-04-05T11:34:38.872Z,8.10
2019-04-05T11:37:06.829Z,8.05
2019-04-05T11:39:33.573Z,5.90
2019-04-05T11:42:02.378Z,8.15
2019-04-05T11:44:31.277Z,5.17
2019-04-05T11:46:57.789Z,4.80
2019-04-05T11:49:24.478Z,4.28
2019-04-05T11:51:51.615Z,2.98
2019-04-05T11:54:18.534Z,5.28
2019-04-05T11:56:45.197Z,4.97
2019-04-05T11:59:15.662Z,3.55
2019-04-05T12:01:45.055Z,4.05
2019-04-05T12:04:11.572Z,5.10
2019-04-05T12:06:38.112Z,3.55
2019-04-05T12:09:07.059Z,9.10
2019-04-05T12:11:33.785Z,4.97
2019-04-05T12:14:00.181Z,3.98
2019-04-05T12:16:26.925Z,4.85
2019-04-05T12:18:53.971Z,5.55
2019-04-05T12:21:21.045Z,3.87
2019-04-05T12:23:48.018Z,6.72
2019-04-05T12:26:14.445Z,4.45
2019-04-05T12:28:41.051Z,4.08
2019-04-05T12:31:07.803Z,3.85
2019-04-05T12:33:34.236Z,3.42
2019-04-05T12:36:00.876Z,3.20
2019-04-05T12:38:31.504Z,3.10
2019-04-05T12:41:00.786Z,2.98
2019-04-05T12:43:27.459Z,5.35
2019-04-05T12:45:54.098Z,3.60
2019-04-05T12:48:21.580Z,3.17
2019-04-05T12:51:00.328Z,9.15
2019-04-05T12:53:17.003Z,16.87
2019-04-05T12:55:43.623Z,12.98
2019-04-05T12:58:10.323Z,4.12
2019-04-05T13:00:38.994Z,3.95
2019-04-05T13:03:06.592Z,5.10
2019-04-05T13:05:38.135Z,2.80
2019-04-05T13:08:09.645Z,5.42
2019-04-05T13:10:36.652Z,4.75
2019-04-05T13:13:03.380Z,4.37
2019-04-05T13:15:30.094Z,3.33
2019-04-05T13:18:00.440Z,3.70
2019-04-05T13:20:25.945Z,4.33
2019-04-05T13:22:52.893Z,3.33
2019-04-05T13:25:19.459Z,2.95
2019-04-05T13:27:46.228Z,3.80
2019-04-05T13:30:13.391Z,3.55
2019-04-05T13:32:40.000Z,3.33
2019-04-05T13:35:07.384Z,5.67
2019-04-05T13:37:34.048Z,5.85
2019-04-05T13:40:00.735Z,12.75
2019-04-05T13:42:27.332Z,6.47
2019-04-05T13:44:54.114Z,8.20
2019-04-05T13:47:20.720Z,8.45
2019-04-05T13:49:47.278Z,4.85
2019-04-05T13:52:14.782Z,7.55
2019-04-05T13:54:41.546Z,2.80
2019-04-05T13:57:10.509Z,3.92
2019-04-05T13:59:36.215Z,2.58
2019-04-05T14:02:06.379Z,3.40
2019-04-05T14:04:33.263Z,3.52
2019-04-05T14:06:59.965Z,4.67
2019-04-05T14:09:26.276Z,2.37
2019-04-05T14:11:52.819Z,2.90
2019-04-05T14:14:19.318Z,4.25
2019-04-05T14:16:45.981Z,3.55
2019-04-05T14:19:12.551Z,7.15
2019-04-05T14:21:41.889Z,6.20
2019-04-05T14:24:07.503Z,8.73
2019-04-05T14:26:34.069Z,4.65
2019-04-05T14:29:03.487Z,3.47
2019-04-05T14:31:29.580Z,2.90
2019-04-05T14:33:57.260Z,3.60
2019-04-05T14:36:23.962Z,3.60
2019-04-05T14:38:50.542Z,4.33
2019-04-05T14:41:17.339Z,3.87
2019-04-05T14:43:45.006Z,2.25
2019-04-05T14:46:12.422Z,2.55
2019-04-05T14:49:00.653Z,4.08
2019-04-05T14:51:28.672Z,22.50
2019-04-05T14:53:55.529Z,14.98
2019-04-05T14:56:22.038Z,5.03
2019-04-05T14:58:48.568Z,3.72
2019-04-05T15:01:17.493Z,2.12
2019-04-05T15:03:43.572Z,4.00
2019-04-05T15:06:10.098Z,1.70
2019-04-05T15:08:36.846Z,1.47
2019-04-05T15:11:04.137Z,1.72
2019-04-05T15:13:30.795Z,1.95
2019-04-05T15:15:57.378Z,1.98
2019-04-05T15:18:24.546Z,2.25
2019-04-05T15:20:51.820Z,2.58
2019-04-05T15:23:18.392Z,5.47
2019-04-05T15:25:49.447Z,11.97
2019-04-05T15:28:13.858Z,5.45
2019-04-05T15:30:40.381Z,3.00
2019-04-05T15:33:06.868Z,2.45
2019-04-05T15:35:33.568Z,2.47
2019-04-05T15:38:02.039Z,3.50
2019-04-05T15:40:28.729Z,2.47
2019-04-05T15:42:57.482Z,2.70
2019-04-05T15:45:24.030Z,2.95
2019-04-05T15:47:52.383Z,3.80
2019-04-05T15:50:19.675Z,3.98
2019-04-05T15:52:47.266Z,2.30
2019-04-05T15:55:13.822Z,2.95
2019-04-05T15:57:40.359Z,2.33
2019-04-05T16:00:11.282Z,2.75
2019-04-05T16:02:37.905Z,2.85
2019-04-05T16:05:05.738Z,2.65
2019-04-05T16:07:33.351Z,4.12
2019-04-05T16:10:00.050Z,3.35
2019-04-05T16:12:26.759Z,4.55
2019-04-05T16:14:53.219Z,7.62
2019-04-05T16:17:19.599Z,3.10
2019-04-05T16:19:46.382Z,4.47
2019-04-05T16:22:13.044Z,5.05
2019-04-05T16:24:39.621Z,2.98
2019-04-05T16:27:06.346Z,3.67
2019-04-05T16:29:33.026Z,5.53
2019-04-05T16:31:59.588Z,6.37
2019-04-05T16:34:26.269Z,8.65
2019-04-05T16:36:52.837Z,8.13
2019-04-05T16:39:19.682Z,14.40
2019-04-05T16:41:46.393Z,23.98
2019-04-05T16:44:13.056Z,12.53
2019-04-05T16:46:39.647Z,6.45
2019-04-05T16:49:06.123Z,7.80
2019-04-05T16:51:32.568Z,4.97
2019-04-05T16:54:01.543Z,12.43
2019-04-05T16:56:28.454Z,6.83
2019-04-05T16:58:56.868Z,9.68
2019-04-05T17:01:27.226Z,5.03
2019-04-05T17:03:52.004Z,6.67
2019-04-05T17:06:18.792Z,5.55
2019-04-05T17:08:45.547Z,6.17
2019-04-05T17:11:12.337Z,5.70
2019-04-05T17:13:38.846Z,12.43
2019-04-05T17:16:05.437Z,6.40
2019-04-05T17:18:32.366Z,7.62
2019-04-05T17:20:59.201Z,6.00
2019-04-05T17:23:26.135Z,12.33
2019-04-05T17:28:54.093Z,7.80
2019-04-05T17:31:20.688Z,10.25
2019-04-05T17:33:50.292Z,6.83
2019-04-05T17:36:28.005Z,18.52
2019-04-05T17:38:55.975Z,9.40
2019-04-05T17:41:23.805Z,7.42
2019-04-05T17:43:50.576Z,7.08
2019-04-05T17:46:17.166Z,9.60
2019-04-05T17:48:43.851Z,11.68
2019-04-05T17:51:10.583Z,8.33
2019-04-05T17:53:37.528Z,13.95
2019-04-05T17:56:04.330Z,15.32
2019-04-05T17:58:32.074Z,17.82
2019-04-05T18:00:58.608Z,11.38
2019-04-05T18:03:25.298Z,6.37
2019-04-05T18:05:51.813Z,6.17
2019-04-05T18:08:18.223Z,8.40
2019-04-05T18:10:45.095Z,9.63
2019-04-05T18:13:11.639Z,7.58
2019-04-05T18:15:51.819Z,18.57
2019-04-05T18:18:08.612Z,15.83
2019-04-05T18:20:35.204Z,8.33
2019-04-05T18:23:01.860Z,7.33
2019-04-05T18:25:28.651Z,7.65
2019-04-05T18:27:55.268Z,11.10
2019-04-05T18:30:21.889Z,6.90
2019-04-05T18:32:48.509Z,5.80
2019-04-05T18:35:15.062Z,6.35
2019-04-05T18:37:41.603Z,7.08
2019-04-05T18:40:08.817Z,11.18
2019-04-05T18:42:35.401Z,8.05
2019-04-05T18:45:02.637Z,15.78
2019-04-05T18:47:30.320Z,9.35
2019-04-05T18:50:02.879Z,23.10
2019-04-05T18:52:25.186Z,9.93
2019-04-05T18:54:51.634Z,9.23
2019-04-05T18:57:18.300Z,9.68
2019-04-05T18:59:44.850Z,12.98
2019-04-05T19:02:11.448Z,11.25
2019-04-05T19:04:38.333Z,11.93
2019-04-05T19:07:05.935Z,10.32
2019-04-05T19:09:32.605Z,11.60
2019-04-05T19:11:59.186Z,11.30
2019-04-05T19:14:25.817Z,14.05
2019-04-05T19:16:53.195Z,12.98
2019-04-05T19:19:19.948Z,18.02
2019-04-05T19:21:46.786Z,17.05
2019-04-05T19:24:13.439Z,19.75
2019-04-05T19:26:40.053Z,17.65
2019-04-05T19:29:06.702Z,18.10
2019-04-05T19:48:52.398Z,17.25
2019-04-05T19:51:19.144Z,16.90
2019-04-05T19:53:45.794Z,18.70
2019-04-05T19:56:12.211Z,15.75
2019-04-05T19:58:38.895Z,15.78
2019-04-05T20:01:05.905Z,16.05
2019-04-05T20:03:32.475Z,20.60
2019-04-05T20:05:59.278Z,22.58
2019-04-05T20:08:26.990Z,19.52
2019-04-05T20:10:53.697Z,24.32
2019-04-05T20:13:20.435Z,19.48
2019-04-05T20:15:47.211Z,17.55
2019-04-05T20:18:13.740Z,18.10
2019-04-05T20:20:41.295Z,18.75
2019-04-05T20:23:08.085Z,18.27
2019-04-05T20:25:34.857Z,19.23
2019-04-05T20:28:01.405Z,19.12
2019-04-05T20:30:28.079Z,19.80
2019-04-05T20:32:54.746Z,20.48
2019-04-05T20:35:21.400Z,21.33
2019-04-05T20:37:48.856Z,20.65
2019-04-05T20:40:15.396Z,21.62
2019-04-05T20:42:42.458Z,22.30
2019-04-05T20:45:09.285Z,21.05
2019-04-05T20:47:35.960Z,22.30
2019-04-05T20:50:06.424Z,20.15
2019-04-05T20:52:33.024Z,19.37
2019-04-05T20:54:59.501Z,20.45
2019-04-05T20:57:25.942Z,24.45
2019-04-05T20:59:52.362Z,30.92
2019-04-05T21:02:19.035Z,32.23
2019-04-05T21:04:45.497Z,36.75
2019-04-05T21:07:11.954Z,29.67
2019-04-05T21:09:38.774Z,25.40
2019-04-05T21:12:05.375Z,28.25
2019-04-05T21:14:31.940Z,27.70
2019-04-05T21:16:58.307Z,24.15
2019-04-05T21:19:25.159Z,23.75
2019-04-05T21:21:51.735Z,24.15
2019-04-05T21:24:18.495Z,24.05
2019-04-05T21:26:45.006Z,27.00
2019-04-05T21:29:11.395Z,23.87
2019-04-05T21:31:37.988Z,25.17
2019-04-05T21:34:04.538Z,23.38
2019-04-05T21:36:31.072Z,24.82
2019-04-05T21:38:57.626Z,24.47
2019-04-05T21:41:24.068Z,23.65
2019-04-05T21:43:50.548Z,24.00
2019-04-05T21:46:16.983Z,22.48
2019-04-05T21:48:43.618Z,24.65
2019-04-05T21:51:10.089Z,25.00
2019-04-05T21:53:37.720Z,25.70
2019-04-05T21:56:04.207Z,24.25
2019-04-05T21:58:30.684Z,24.20
2019-04-05T22:01:01.201Z,25.27
2019-04-05T22:03:29.674Z,25.37
2019-04-05T22:05:56.222Z,25.77
2019-04-05T22:08:24.551Z,23.87
2019-04-05T22:10:51.174Z,24.47
2019-04-05T22:13:17.487Z,26.00
2019-04-05T22:15:44.028Z,23.87
2019-04-05T22:18:12.474Z,22.15
2019-04-05T22:20:38.983Z,25.85
2019-04-05T22:23:05.499Z,24.82
2019-04-05T22:25:33.412Z,26.02
2019-04-05T22:27:59.984Z,26.65
2019-04-05T22:30:26.917Z,26.35
2019-04-05T22:32:53.439Z,28.73
2019-04-05T22:35:19.883Z,28.77
2019-04-05T22:37:46.264Z,33.35
2019-04-05T22:40:12.828Z,37.00
2019-04-05T22:42:39.538Z,30.95
2019-04-05T22:45:07.140Z,31.35
2019-04-05T22:47:34.427Z,32.23
2019-04-05T22:50:00.871Z,31.57
2019-04-05T22:52:27.382Z,32.63
2019-04-05T22:54:54.040Z,31.30
2019-04-05T22:57:20.576Z,36.42
2019-04-05T22:59:47.049Z,34.67
2019-04-05T23:02:13.479Z,30.52
2019-04-05T23:04:39.988Z,33.10
2019-04-05T23:07:06.439Z,35.17
2019-04-05T23:09:33.097Z,33.18
2019-04-05T23:11:59.488Z,42.70
2019-04-05T23:14:25.800Z,34.65
2019-04-05T23:16:52.297Z,32.03
2019-04-05T23:19:18.689Z,32.35
2019-04-05T23:21:45.602Z,31.82
2019-04-05T23:24:13.036Z,32.05
2019-04-05T23:26:39.534Z,33.30
2019-04-05T23:29:06.185Z,32.42
2019-04-05T23:31:32.491Z,33.95
2019-04-05T23:34:00.999Z,33.85
2019-04-05T23:36:27.382Z,32.28
2019-04-05T23:38:53.899Z,33.48
2019-04-05T23:41:22.341Z,34.92
2019-04-05T23:43:49.204Z,32.95
2019-04-05T23:46:17.352Z,32.05
2019-04-05T23:48:43.675Z,34.88
2019-04-05T23:51:12.884Z,32.58
2019-04-05T23:53:39.445Z,31.27
2019-04-05T23:56:06.047Z,32.70
2019-04-05T23:58:34.228Z,32.28
